createdAt,value
2022-12-03T00:00:31.646Z,1020.0
2022-12-03T00:15:23.430Z,1020.0
2022-12-03T00:30:26.648Z,1020.0
2022-12-03T00:45:23.297Z,1020.0
2022-12-03T01:00:27.839Z,1020.0
2022-12-03T01:15:23.595Z,1020.0
2022-12-03T01:30:23.810Z,1020.0
2022-12-03T01:45:23.761Z,1020.0
2022-12-03T02:00:30.835Z,1020.0
2022-12-03T02:15:24.037Z,1020.0
2022-12-03T02:30:24.364Z,1020.0
2022-12-03T02:45:23.525Z,1020.0
2022-12-03T03:00:26.546Z,1020.0
2022-12-03T03:15:23.662Z,1020.0
2022-12-03T03:30:23.572Z,1020.0
2022-12-03T03:45:28.741Z,1020.0
2022-12-03T04:00:23.642Z,1020.0
2022-12-03T04:15:23.723Z,1020.0
2022-12-03T04:30:23.856Z,1020.0
2022-12-03T04:45:23.729Z,1020.0
2022-12-03T05:00:23.925Z,1020.0
2022-12-03T05:15:23.790Z,1020.0
2022-12-03T05:30:23.880Z,1020.0
2022-12-03T05:45:23.805Z,1019.3
2022-12-03T06:00:42.718Z,1019.3
2022-12-03T06:15:23.722Z,1020.0
2022-12-03T06:30:23.966Z,1020.0
2022-12-03T06:45:23.989Z,1020.0
2022-12-03T07:00:26.533Z,1019.7
2022-12-03T07:15:33.026Z,1020.0
2022-12-03T07:30:33.187Z,1020.0
2022-12-03T07:45:33.426Z,1020.0
2022-12-03T08:00:33.201Z,1020.0
2022-12-03T08:15:23.122Z,1019.5
2022-12-03T08:30:23.463Z,1019.3
2022-12-03T08:45:23.189Z,1019.0
2022-12-03T09:00:23.312Z,1019.0
2022-12-03T09:15:23.391Z,1019.0
2022-12-03T09:30:23.333Z,1019.0
2022-12-03T09:45:23.358Z,1019.7
2022-12-03T10:00:27.181Z,1020.0
2022-12-03T10:15:23.470Z,1019.7
2022-12-03T10:30:23.397Z,1019.0
2022-12-03T10:45:23.433Z,1019.0
2022-12-03T11:00:26.997Z,1019.0
2022-12-03T11:15:23.578Z,1019.0
2022-12-03T11:30:23.620Z,1019.0
2022-12-03T11:45:23.558Z,1019.0
2022-12-03T12:00:25.804Z,1018.5
2022-12-03T12:15:23.516Z,1018.0
2022-12-03T12:30:24.341Z,1018.0
2022-12-03T12:45:23.473Z,1018.0
2022-12-03T13:00:25.520Z,1018.0
2022-12-03T13:15:23.538Z,1018.0
2022-12-03T13:30:23.486Z,1018.0
2022-12-03T13:45:23.695Z,1018.0
2022-12-03T14:00:24.675Z,1018.0
2022-12-03T14:15:23.670Z,1018.0
2022-12-03T14:30:23.708Z,1018.0
2022-12-03T14:45:23.565Z,1018.0
2022-12-03T15:00:27.637Z,1018.0
2022-12-03T15:15:24.195Z,1018.0
2022-12-03T15:30:23.734Z,1018.0
2022-12-03T15:45:23.603Z,1018.0
2022-12-03T16:00:27.116Z,1018.0
2022-12-03T16:15:27.234Z,1018.0
2022-12-03T16:30:23.911Z,1018.0
2022-12-03T16:45:24.481Z,1018.0
2022-12-03T17:00:24.071Z,1018.0
2022-12-03T17:15:23.821Z,1018.0
2022-12-03T17:30:24.413Z,1018.0
2022-12-03T17:45:23.803Z,1017.3
2022-12-03T18:00:27.539Z,1017.0
2022-12-03T18:15:24.033Z,1017.0
2022-12-03T18:30:33.749Z,1017.0
2022-12-03T18:45:33.046Z,1017.0
2022-12-03T19:00:35.447Z,1017.0
2022-12-03T19:15:23.352Z,1017.0
2022-12-03T19:30:23.175Z,1017.0
2022-12-03T19:45:23.234Z,1017.0
2022-12-03T20:00:31.115Z,1017.0
2022-12-03T20:15:23.333Z,1017.0
2022-12-03T20:30:23.604Z,1017.0
2022-12-03T20:45:23.268Z,1017.0
2022-12-03T21:00:25.899Z,1017.0
2022-12-03T21:15:23.335Z,1017.0
2022-12-03T21:30:24.024Z,1017.0
2022-12-03T21:45:23.872Z,1017.0
2022-12-03T22:00:23.406Z,1017.0
2022-12-03T22:15:23.378Z,1017.0
2022-12-03T22:30:23.433Z,1017.0
2022-12-03T22:45:23.737Z,1016.3
2022-12-03T23:15:23.491Z,1016.0
2022-12-03T23:30:24.011Z,1016.0
2022-12-03T23:45:23.539Z,1016.0
